createdAt,value
2023-08-29T00:00:38.157Z,99420.70
2023-08-29T00:03:05.647Z,99422.33
2023-08-29T00:05:33.056Z,99422.14
2023-08-29T00:08:00.461Z,99417.73
2023-08-29T00:10:27.910Z,99418.51
2023-08-29T00:12:55.268Z,99419.48
2023-08-29T00:15:22.725Z,99417.57
2023-08-29T00:17:50.162Z,99419.08
2023-08-29T00:20:17.654Z,99417.33
2023-08-29T00:22:45.094Z,99413.98
2023-08-29T00:25:12.507Z,99411.00
2023-08-29T00:27:39.904Z,99405.77
2023-08-29T00:30:09.098Z,99402.01
2023-08-29T00:32:36.438Z,99403.85
2023-08-29T00:35:04.956Z,99395.36
2023-08-29T00:37:33.488Z,99396.05
2023-08-29T00:40:02.309Z,99393.80
2023-08-29T00:42:29.723Z,99392.89
2023-08-29T00:44:57.860Z,99389.86
2023-08-29T00:47:26.267Z,99391.09
2023-08-29T00:49:53.705Z,99393.90
2023-08-29T00:52:21.035Z,99397.90
2023-08-29T00:54:48.799Z,99395.34
2023-08-29T00:57:16.088Z,99396.91
2023-08-29T00:59:43.404Z,99392.66
2023-08-29T01:02:11.311Z,99398.48
2023-08-29T01:04:38.900Z,99401.67
2023-08-29T01:07:06.569Z,99405.68
2023-08-29T01:09:34.587Z,99407.30
2023-08-29T01:12:08.363Z,99407.84
2023-08-29T01:14:59.404Z,99406.84
2023-08-29T01:17:30.375Z,99407.22
2023-08-29T01:19:58.118Z,99407.80
2023-08-29T01:22:45.077Z,99409.45
2023-08-29T01:25:49.749Z,99407.74
2023-08-29T01:28:17.207Z,99405.10
2023-08-29T01:30:44.549Z,99405.23
2023-08-29T01:33:12.001Z,99408.87
2023-08-29T01:35:46.707Z,99411.84
2023-08-29T01:38:14.956Z,99412.96
2023-08-29T01:40:42.263Z,99417.32
2023-08-29T01:43:09.636Z,99413.33
2023-08-29T01:45:37.023Z,99414.52
2023-08-29T01:48:05.794Z,99413.73
2023-08-29T01:50:34.283Z,99409.14
2023-08-29T01:53:01.710Z,99408.23
2023-08-29T01:55:29.078Z,99411.40
2023-08-29T01:57:56.604Z,99408.73
2023-08-29T02:00:23.994Z,99405.80
2023-08-29T02:02:51.443Z,99404.27
2023-08-29T02:05:18.849Z,99406.80
2023-08-29T02:07:46.192Z,99408.60
2023-08-29T02:10:14.150Z,99410.33
2023-08-29T02:12:41.579Z,99408.20
2023-08-29T02:15:10.027Z,99410.29
2023-08-29T02:17:41.369Z,99411.94
2023-08-29T02:20:09.684Z,99414.98
2023-08-29T02:22:37.578Z,99416.77
2023-08-29T02:25:06.335Z,99415.79
2023-08-29T02:27:33.889Z,99415.88
2023-08-29T02:30:05.290Z,99415.69
2023-08-29T02:32:35.745Z,99420.27
2023-08-29T02:35:05.329Z,99417.19
2023-08-29T02:37:34.344Z,99424.00
2023-08-29T02:40:02.193Z,99428.59
2023-08-29T02:42:29.647Z,99434.64
2023-08-29T02:44:57.008Z,99436.06
2023-08-29T02:47:24.369Z,99439.92
2023-08-29T02:49:51.784Z,99440.27
2023-08-29T02:52:19.172Z,99438.00
2023-08-29T02:54:46.554Z,99439.10
2023-08-29T02:57:13.867Z,99436.56
2023-08-29T02:59:41.252Z,99435.81
2023-08-29T03:02:08.626Z,99435.40
2023-08-29T03:04:35.960Z,99434.70
2023-08-29T03:07:05.551Z,99433.85
2023-08-29T03:09:34.942Z,99433.18
2023-08-29T03:12:03.873Z,99435.83
2023-08-29T03:14:31.864Z,99438.50
2023-08-29T03:16:59.609Z,99439.55
2023-08-29T03:19:27.035Z,99439.95
2023-08-29T03:21:54.388Z,99439.73
2023-08-29T03:24:21.790Z,99438.86
2023-08-29T03:26:49.117Z,99438.90
2023-08-29T03:29:16.527Z,99439.46
2023-08-29T03:31:43.902Z,99435.11
2023-08-29T03:34:11.204Z,99433.25
2023-08-29T03:36:40.070Z,99434.42
2023-08-29T03:39:07.477Z,99439.20
2023-08-29T03:41:35.606Z,99442.95
2023-08-29T03:44:04.608Z,99443.58
2023-08-29T03:46:32.237Z,99446.40
2023-08-29T03:49:00.637Z,99450.91
2023-08-29T03:51:28.006Z,99453.25
2023-08-29T03:53:55.393Z,99455.75
2023-08-29T03:56:22.872Z,99457.39
2023-08-29T03:58:50.466Z,99459.41
2023-08-29T04:01:20.909Z,99459.11
2023-08-29T04:03:51.606Z,99463.73
2023-08-29T04:06:21.081Z,99462.72
2023-08-29T04:08:48.553Z,99465.47
2023-08-29T04:11:15.966Z,99465.17
2023-08-29T04:13:43.292Z,99461.05
2023-08-29T04:16:10.835Z,99456.66
2023-08-29T04:18:38.201Z,99452.12
2023-08-29T04:21:05.544Z,99450.08
2023-08-29T04:23:33.050Z,99451.77
2023-08-29T04:26:01.204Z,99454.17
2023-08-29T04:28:28.883Z,99455.46
2023-08-29T04:30:56.238Z,99464.56
2023-08-29T04:33:25.581Z,99464.71
2023-08-29T04:35:55.129Z,99464.44
2023-08-29T04:38:22.533Z,99470.30
2023-08-29T04:40:49.940Z,99469.91
2023-08-29T04:43:17.334Z,99472.52
2023-08-29T04:45:46.077Z,99473.71
2023-08-29T04:48:14.730Z,99471.05
2023-08-29T04:50:42.247Z,99469.29
2023-08-29T04:53:09.571Z,99463.20
2023-08-29T04:55:36.943Z,99459.98
2023-08-29T04:58:04.992Z,99459.81
2023-08-29T05:00:32.846Z,99456.73
2023-08-29T05:03:00.399Z,99455.09
2023-08-29T05:05:28.122Z,99453.66
2023-08-29T05:07:55.442Z,99451.23
2023-08-29T05:10:26.309Z,99452.33
2023-08-29T05:12:54.511Z,99454.02
2023-08-29T05:15:21.840Z,99461.10
2023-08-29T05:17:49.221Z,99459.88
2023-08-29T05:20:17.043Z,99459.94
2023-08-29T05:22:45.984Z,99460.33
2023-08-29T05:25:13.509Z,99462.40
2023-08-29T05:27:40.888Z,99465.35
2023-08-29T05:30:09.459Z,99462.57
2023-08-29T05:32:38.289Z,99464.98
2023-08-29T05:35:06.311Z,99471.22
2023-08-29T05:37:33.890Z,99473.38
2023-08-29T05:40:01.259Z,99476.26
2023-08-29T05:42:28.586Z,99478.98
2023-08-29T05:44:55.972Z,99477.27
2023-08-29T05:47:23.346Z,99473.45
2023-08-29T05:49:50.714Z,99469.25
2023-08-29T05:52:18.097Z,99470.37
2023-08-29T05:54:45.545Z,99472.63
2023-08-29T05:57:12.871Z,99471.16
2023-08-29T05:59:40.257Z,99470.75
2023-08-29T06:02:07.638Z,99470.34
2023-08-29T06:04:35.063Z,99470.90
2023-08-29T06:07:02.387Z,99469.65
2023-08-29T06:09:30.265Z,99466.34
2023-08-29T06:11:57.662Z,99465.22
2023-08-29T06:14:25.016Z,99467.15
2023-08-29T06:16:52.376Z,99468.81
2023-08-29T06:19:20.205Z,99473.44
2023-08-29T06:21:47.563Z,99474.71
2023-08-29T06:24:16.656Z,99480.03
2023-08-29T06:26:44.057Z,99480.96
2023-08-29T06:29:12.289Z,99480.35
2023-08-29T06:31:41.823Z,99479.64
2023-08-29T06:34:09.242Z,99479.63
2023-08-29T06:36:36.690Z,99480.07
2023-08-29T06:39:04.542Z,99482.27
2023-08-29T06:41:32.313Z,99483.88
2023-08-29T06:43:59.687Z,99484.75
2023-08-29T06:46:27.033Z,99477.56
2023-08-29T06:48:54.408Z,99474.23
2023-08-29T06:51:21.775Z,99471.48
2023-08-29T06:53:49.089Z,99468.20
2023-08-29T06:56:16.461Z,99467.36
2023-08-29T06:58:43.778Z,99468.17
2023-08-29T07:01:11.192Z,99468.46
2023-08-29T07:03:38.570Z,99464.88
2023-08-29T07:06:05.937Z,99462.27
2023-08-29T07:08:33.969Z,99462.07
2023-08-29T07:11:01.280Z,99461.98
2023-08-29T07:13:28.612Z,99458.59
2023-08-29T07:15:55.981Z,99459.30
2023-08-29T07:18:24.222Z,99462.98
2023-08-29T07:20:51.823Z,99462.30
2023-08-29T07:23:19.161Z,99464.60
2023-08-29T07:25:47.162Z,99465.98
2023-08-29T07:28:14.812Z,99465.89
2023-08-29T07:30:54.655Z,99466.35
2023-08-29T07:33:22.179Z,99468.89
2023-08-29T07:35:53.463Z,99467.35
2023-08-29T07:38:20.859Z,99470.27
2023-08-29T07:40:48.475Z,99473.94
2023-08-29T07:43:16.227Z,99472.70
2023-08-29T07:45:43.861Z,99473.31
2023-08-29T07:48:11.833Z,99472.20
2023-08-29T07:50:39.772Z,99474.14
2023-08-29T07:53:07.221Z,99474.95
2023-08-29T07:55:34.623Z,99476.14
2023-08-29T07:58:03.156Z,99475.84
2023-08-29T08:00:30.660Z,99475.97
2023-08-29T08:02:58.044Z,99475.08
2023-08-29T08:05:26.238Z,99478.40
2023-08-29T08:07:53.846Z,99473.30
2023-08-29T08:10:21.377Z,99471.52
2023-08-29T08:12:49.437Z,99471.70
2023-08-29T08:15:17.736Z,99471.67
2023-08-29T08:17:46.628Z,99473.70
2023-08-29T08:20:14.239Z,99475.02
2023-08-29T08:22:42.254Z,99471.82
2023-08-29T08:25:11.559Z,99472.61
2023-08-29T08:27:41.805Z,99472.77
2023-08-29T08:30:10.101Z,99470.98
2023-08-29T08:32:37.855Z,99471.84
2023-08-29T08:36:34.248Z,99481.55
2023-08-29T08:39:00.761Z,99481.33
2023-08-29T08:41:27.437Z,99479.77
2023-08-29T08:43:55.706Z,99478.95
2023-08-29T08:46:22.201Z,99474.59
2023-08-29T08:48:49.276Z,99472.40
2023-08-29T08:51:16.486Z,99473.14
2023-08-29T08:53:43.363Z,99475.06
2023-08-29T08:56:10.376Z,99473.05
2023-08-29T08:58:37.672Z,99471.80
2023-08-29T09:01:04.739Z,99467.52
2023-08-29T09:03:31.520Z,99467.27
2023-08-29T09:05:58.460Z,99464.88
2023-08-29T09:08:25.168Z,99460.85
2023-08-29T09:10:52.079Z,99457.89
2023-08-29T09:13:19.851Z,99457.11
2023-08-29T09:15:47.585Z,99455.58
2023-08-29T09:18:16.501Z,99456.36
2023-08-29T09:20:43.926Z,99454.21
2023-08-29T09:23:21.054Z,99455.15
2023-08-29T09:25:57.254Z,99454.86
2023-08-29T09:28:28.295Z,99455.06
2023-08-29T09:30:55.708Z,99454.36
2023-08-29T09:33:22.694Z,99453.23
2023-08-29T09:35:49.878Z,99456.09
2023-08-29T09:38:18.919Z,99459.27
2023-08-29T09:40:49.586Z,99460.11
2023-08-29T09:43:17.627Z,99467.52
2023-08-29T09:45:51.489Z,99468.58
2023-08-29T09:48:21.073Z,99464.09
2023-08-29T09:50:50.149Z,99464.04
2023-08-29T09:53:23.225Z,99465.70
2023-08-29T09:56:08.691Z,99462.77
2023-08-29T09:58:35.469Z,99456.00
2023-08-29T10:01:05.363Z,99452.98
2023-08-29T10:03:32.312Z,99452.93
2023-08-29T10:06:00.678Z,99456.59
2023-08-29T10:08:31.896Z,99451.56
2023-08-29T10:11:00.156Z,99455.04
2023-08-29T10:13:26.746Z,99451.77
2023-08-29T10:15:53.491Z,99450.11
2023-08-29T10:18:22.293Z,99452.56
2023-08-29T10:20:51.656Z,99448.11
2023-08-29T10:23:18.231Z,99445.34
2023-08-29T10:25:45.250Z,99449.66
2023-08-29T10:28:12.775Z,99456.61
2023-08-29T10:30:41.411Z,99457.59
2023-08-29T10:33:09.305Z,99456.92
2023-08-29T10:35:35.823Z,99456.29
2023-08-29T10:38:02.539Z,99462.05
2023-08-29T10:40:36.200Z,99459.05
2023-08-29T10:43:04.066Z,99462.23
2023-08-29T10:45:46.532Z,99463.33
2023-08-29T10:48:19.848Z,99459.79
2023-08-29T10:51:06.083Z,99458.02
2023-08-29T10:53:34.142Z,99459.08
2023-08-29T10:56:03.293Z,99462.63
2023-08-29T10:58:36.179Z,99459.75
2023-08-29T11:01:05.787Z,99454.08
2023-08-29T11:03:47.285Z,99456.95
2023-08-29T11:06:15.284Z,99458.24
2023-08-29T11:08:41.867Z,99455.23
2023-08-29T11:11:23.571Z,99456.13
2023-08-29T11:14:08.492Z,99453.98
2023-08-29T11:16:36.133Z,99454.00
2023-08-29T11:19:13.722Z,99460.17
2023-08-29T11:21:46.800Z,99460.55
2023-08-29T11:24:17.092Z,99460.90
2023-08-29T11:26:45.028Z,99463.71
2023-08-29T11:29:13.885Z,99458.48
2023-08-29T11:31:46.717Z,99458.03
2023-08-29T11:34:13.718Z,99462.21
2023-08-29T11:36:41.576Z,99459.02
2023-08-29T11:39:08.901Z,99457.02
2023-08-29T11:41:46.986Z,99454.56
2023-08-29T11:45:18.498Z,99457.07
2023-08-29T11:47:15.608Z,99448.98
2023-08-29T11:49:43.095Z,99451.45
2023-08-29T11:52:09.959Z,99452.36
2023-08-29T11:54:45.441Z,99448.75
2023-08-29T11:57:13.020Z,99446.56
2023-08-29T11:59:44.113Z,99444.98
2023-08-29T12:02:17.729Z,99445.31
2023-08-29T12:04:48.158Z,99448.11
2023-08-29T12:07:15.949Z,99445.93
2023-08-29T12:09:44.078Z,99447.27
2023-08-29T12:12:34.182Z,99455.55
2023-08-29T12:15:07.176Z,99454.71
2023-08-29T12:17:41.840Z,99452.86
2023-08-29T12:20:14.557Z,99445.88
2023-08-29T12:22:43.674Z,99445.38
2023-08-29T12:25:10.481Z,99449.14
2023-08-29T12:27:37.310Z,99450.06
2023-08-29T12:30:05.016Z,99445.83
2023-08-29T12:32:31.909Z,99442.95
2023-08-29T12:34:58.757Z,99443.48
2023-08-29T12:37:25.527Z,99446.40
2023-08-29T12:39:52.927Z,99448.77
2023-08-29T12:42:19.780Z,99453.06
2023-08-29T12:44:46.390Z,99446.47
2023-08-29T12:47:12.929Z,99447.57
2023-08-29T12:49:39.462Z,99444.04
2023-08-29T12:52:06.141Z,99445.20
2023-08-29T12:54:34.241Z,99449.36
2023-08-29T12:57:01.326Z,99442.05
2023-08-29T12:59:28.167Z,99439.35
2023-08-29T13:01:54.741Z,99442.28
2023-08-29T13:04:21.529Z,99445.17
2023-08-29T13:06:48.323Z,99448.02
2023-08-29T13:09:26.902Z,99446.81
2023-08-29T13:12:01.873Z,99443.00
2023-08-29T13:14:35.648Z,99437.86
2023-08-29T13:17:05.054Z,99440.23
2023-08-29T13:19:34.851Z,99441.78
2023-08-29T13:22:02.746Z,99444.23
2023-08-29T13:24:29.560Z,99440.41
2023-08-29T13:26:56.438Z,99437.39
2023-08-29T13:29:23.402Z,99439.58
2023-08-29T13:31:50.814Z,99438.48
2023-08-29T13:34:18.028Z,99435.98
2023-08-29T13:36:44.707Z,99436.70
2023-08-29T13:39:11.245Z,99438.86
2023-08-29T13:41:38.499Z,99439.58
2023-08-29T13:44:05.374Z,99436.86
2023-08-29T13:46:32.569Z,99432.08
2023-08-29T13:48:59.061Z,99429.98
2023-08-29T13:51:25.859Z,99430.59
2023-08-29T13:53:52.439Z,99431.08
2023-08-29T13:56:19.006Z,99426.48
2023-08-29T13:58:45.977Z,99426.49
2023-08-29T14:01:13.330Z,99425.12
2023-08-29T14:03:40.188Z,99420.96
2023-08-29T14:06:07.281Z,99423.09
2023-08-29T14:08:34.167Z,99425.09
2023-08-29T14:11:01.698Z,99426.89
2023-08-29T14:13:28.757Z,99425.58
2023-08-29T14:16:03.147Z,99422.55
2023-08-29T14:18:30.829Z,99423.49
2023-08-29T14:20:58.138Z,99422.89
2023-08-29T14:23:25.091Z,99419.75
2023-08-29T14:25:52.043Z,99417.70
2023-08-29T14:28:18.653Z,99416.42
2023-08-29T14:30:45.764Z,99417.97
2023-08-29T14:33:13.695Z,99418.19
2023-08-29T14:35:41.026Z,99415.54
2023-08-29T14:38:08.001Z,99416.42
2023-08-29T14:40:35.102Z,99414.45
2023-08-29T14:43:01.596Z,99410.91
2023-08-29T14:45:28.546Z,99410.80
2023-08-29T14:47:55.398Z,99408.42
2023-08-29T14:50:23.286Z,99407.64
2023-08-29T14:52:52.411Z,99409.25
2023-08-29T14:55:21.770Z,99409.95
2023-08-29T14:57:48.508Z,99406.19
2023-08-29T15:00:16.077Z,99403.52
2023-08-29T15:02:43.983Z,99405.34
2023-08-29T15:05:12.123Z,99406.84
2023-08-29T15:07:39.561Z,99410.14
2023-08-29T15:10:06.936Z,99406.67
2023-08-29T15:12:33.589Z,99404.58
2023-08-29T15:15:02.561Z,99403.02
2023-08-29T15:17:30.191Z,99399.70
2023-08-29T15:19:57.279Z,99401.80
2023-08-29T15:22:23.783Z,99401.75
2023-08-29T15:24:50.372Z,99405.17
2023-08-29T15:27:17.426Z,99408.64
2023-08-29T15:29:44.411Z,99409.69
2023-08-29T15:32:11.041Z,99407.00
2023-08-29T15:34:37.760Z,99410.50
2023-08-29T15:37:05.147Z,99411.80
2023-08-29T15:39:33.107Z,99409.42
2023-08-29T15:42:00.185Z,99407.33
2023-08-29T15:44:32.258Z,99408.61
2023-08-29T15:46:58.795Z,99412.68
2023-08-29T15:49:25.411Z,99413.40
2023-08-29T15:51:51.876Z,99414.02
2023-08-29T15:54:18.508Z,99412.94
2023-08-29T15:56:45.171Z,99414.74
2023-08-29T15:59:12.582Z,99413.02
2023-08-29T16:01:39.128Z,99416.80
2023-08-29T16:04:05.570Z,99413.45
2023-08-29T16:06:33.323Z,99412.50
2023-08-29T16:09:01.084Z,99413.84
2023-08-29T16:11:28.845Z,99416.40
2023-08-29T16:13:55.415Z,99414.75
2023-08-29T16:16:22.059Z,99414.98
2023-08-29T16:18:48.751Z,99412.65
2023-08-29T16:21:17.912Z,99408.94
2023-08-29T16:23:45.753Z,99409.11
2023-08-29T16:26:15.702Z,99409.55
2023-08-29T16:28:42.894Z,99411.53
2023-08-29T16:31:09.658Z,99409.54
2023-08-29T16:33:36.287Z,99410.44
2023-08-29T16:36:05.958Z,99413.16
2023-08-29T16:38:32.957Z,99409.29
2023-08-29T16:40:59.457Z,99405.06
2023-08-29T16:43:26.685Z,99404.67
2023-08-29T16:45:53.127Z,99408.34
2023-08-29T16:48:19.814Z,99410.45
2023-08-29T16:50:46.931Z,99413.59
2023-08-29T16:53:13.585Z,99415.90
2023-08-29T16:55:43.036Z,99415.91
2023-08-29T16:58:09.775Z,99416.83
2023-08-29T17:00:39.771Z,99422.54
2023-08-29T17:03:12.004Z,99429.69
2023-08-29T17:05:39.585Z,99430.88
2023-08-29T17:08:07.269Z,99433.94
2023-08-29T17:10:34.295Z,99434.35
2023-08-29T17:13:04.397Z,99438.41
2023-08-29T17:15:35.623Z,99444.52
2023-08-29T17:18:02.416Z,99446.15
2023-08-29T17:20:29.053Z,99445.33
2023-08-29T17:22:55.627Z,99449.16
2023-08-29T17:25:22.399Z,99446.67
2023-08-29T17:27:49.379Z,99447.05
2023-08-29T17:30:16.306Z,99446.06
2023-08-29T17:32:43.559Z,99443.87
2023-08-29T17:35:11.345Z,99442.34
2023-08-29T17:37:41.722Z,99446.99
2023-08-29T17:40:10.670Z,99450.49
2023-08-29T17:42:40.457Z,99454.76
2023-08-29T17:45:08.823Z,99456.91
2023-08-29T17:47:36.718Z,99454.77
2023-08-29T17:50:06.226Z,99452.30
2023-08-29T17:52:33.155Z,99451.48
2023-08-29T17:54:59.770Z,99447.73
2023-08-29T17:57:26.633Z,99450.29
2023-08-29T17:59:55.103Z,99452.40
2023-08-29T18:02:26.644Z,99448.95
2023-08-29T18:04:55.043Z,99450.86
2023-08-29T18:07:21.836Z,99449.45
2023-08-29T18:10:08.502Z,99452.88
2023-08-29T18:12:36.522Z,99453.48
2023-08-29T18:15:03.730Z,99453.63
2023-08-29T18:17:31.421Z,99457.02
2023-08-29T18:19:58.330Z,99457.52
2023-08-29T18:22:25.440Z,99456.09
2023-08-29T18:24:54.949Z,99454.64
2023-08-29T18:27:23.683Z,99454.02
2023-08-29T18:29:50.389Z,99455.52
2023-08-29T18:32:17.016Z,99456.57
2023-08-29T18:34:44.164Z,99455.98
2023-08-29T18:37:11.301Z,99452.33
2023-08-29T18:39:38.160Z,99456.22
2023-08-29T18:42:06.044Z,99455.48
2023-08-29T18:44:34.671Z,99454.13
2023-08-29T18:47:01.619Z,99454.97
2023-08-29T18:49:30.371Z,99454.80
2023-08-29T18:51:57.102Z,99452.35
2023-08-29T18:54:23.720Z,99452.69
2023-08-29T18:56:50.652Z,99447.98
2023-08-29T18:59:17.300Z,99446.09
2023-08-29T19:01:43.848Z,99451.96
2023-08-29T19:04:10.500Z,99454.69
2023-08-29T19:06:37.201Z,99456.77
2023-08-29T19:09:04.195Z,99459.10
2023-08-29T19:11:31.028Z,99458.09
2023-08-29T19:13:57.739Z,99456.13
2023-08-29T19:16:25.487Z,99452.02
2023-08-29T19:18:52.562Z,99452.68
2023-08-29T19:21:19.070Z,99454.20
2023-08-29T19:23:45.766Z,99451.57
2023-08-29T19:26:13.091Z,99449.92
2023-08-29T19:28:39.903Z,99449.16
2023-08-29T19:31:06.443Z,99449.51
2023-08-29T19:33:33.192Z,99452.94
2023-08-29T19:36:13.371Z,99454.92
2023-08-29T19:38:40.916Z,99452.77
2023-08-29T19:41:08.410Z,99452.88
2023-08-29T19:43:35.227Z,99449.57
2023-08-29T19:46:01.795Z,99451.71
2023-08-29T19:48:29.307Z,99455.01
2023-08-29T19:50:55.872Z,99456.47
2023-08-29T19:53:22.570Z,99458.83
2023-08-29T19:55:55.707Z,99457.86
2023-08-29T19:58:22.386Z,99458.34
2023-08-29T20:00:50.397Z,99459.86
2023-08-29T20:03:20.268Z,99464.25
2023-08-29T20:05:46.840Z,99464.83
2023-08-29T20:08:16.323Z,99468.51
2023-08-29T20:10:45.636Z,99471.30
2023-08-29T20:13:12.417Z,99468.36
2023-08-29T20:15:43.847Z,99473.35
2023-08-29T20:18:11.475Z,99476.98
2023-08-29T20:20:39.155Z,99473.69
2023-08-29T20:23:05.804Z,99474.11
2023-08-29T20:25:33.297Z,99475.09
2023-08-29T20:28:00.000Z,99474.75
2023-08-29T20:30:27.041Z,99472.39
2023-08-29T20:32:53.858Z,99472.09
2023-08-29T20:35:20.550Z,99474.39
2023-08-29T20:37:47.378Z,99477.81
2023-08-29T20:40:13.955Z,99476.08
2023-08-29T20:42:40.525Z,99481.46
2023-08-29T20:45:08.218Z,99478.52
2023-08-29T20:47:38.883Z,99484.94
2023-08-29T20:50:05.800Z,99487.96
2023-08-29T20:53:54.981Z,99491.94
2023-08-29T20:56:22.391Z,99487.31
2023-08-29T20:58:49.730Z,99489.63
2023-08-29T21:01:17.112Z,99487.82
2023-08-29T21:03:44.599Z,99486.41
2023-08-29T21:06:12.183Z,99484.39
2023-08-29T21:08:39.620Z,99485.67
2023-08-29T21:11:07.514Z,99482.16
2023-08-29T21:13:35.021Z,99482.63
2023-08-29T21:16:03.212Z,99482.45
2023-08-29T21:18:31.407Z,99484.33
2023-08-29T21:21:00.368Z,99485.69
2023-08-29T21:23:28.159Z,99486.51
2023-08-29T21:25:55.687Z,99490.36
2023-08-29T21:28:27.097Z,99491.47
2023-08-29T21:30:54.756Z,99489.92
2023-08-29T21:33:23.499Z,99490.55
2023-08-29T21:35:50.994Z,99492.58
2023-08-29T21:38:18.445Z,99491.20
2023-08-29T21:40:46.772Z,99492.13
2023-08-29T21:43:24.670Z,99500.72
2023-08-29T21:46:04.392Z,99496.27
2023-08-29T21:48:33.402Z,99496.41
2023-08-29T21:51:02.374Z,99498.66
2023-08-29T21:53:29.740Z,99495.11
2023-08-29T21:55:57.147Z,99495.36
2023-08-29T21:58:25.086Z,99497.46
2023-08-29T22:00:54.036Z,99496.27
2023-08-29T22:03:23.681Z,99490.67
2023-08-29T22:05:51.956Z,99491.35
2023-08-29T22:08:20.422Z,99492.76
2023-08-29T22:10:48.456Z,99492.23
2023-08-29T22:13:15.941Z,99492.44
2023-08-29T22:15:43.283Z,99496.13
2023-08-29T22:18:11.118Z,99495.33
2023-08-29T22:20:39.092Z,99493.60
2023-08-29T22:23:06.515Z,99493.31
2023-08-29T22:25:33.976Z,99488.58
2023-08-29T22:28:01.420Z,99486.63
2023-08-29T22:30:28.851Z,99484.37
2023-08-29T22:32:56.311Z,99488.00
2023-08-29T22:35:23.724Z,99488.73
2023-08-29T22:37:51.208Z,99486.62
2023-08-29T22:40:18.932Z,99486.98
2023-08-29T22:42:46.585Z,99485.92
2023-08-29T22:45:14.833Z,99482.42
2023-08-29T22:47:42.500Z,99485.56
2023-08-29T22:50:10.261Z,99482.05
2023-08-29T22:52:40.050Z,99479.42
2023-08-29T22:55:07.936Z,99479.75
2023-08-29T22:57:36.241Z,99478.08
2023-08-29T23:00:04.773Z,99478.30
2023-08-29T23:02:32.506Z,99476.76
2023-08-29T23:04:59.918Z,99476.80
2023-08-29T23:07:27.324Z,99474.33
2023-08-29T23:09:54.689Z,99469.52
2023-08-29T23:12:22.062Z,99470.56
2023-08-29T23:14:49.491Z,99473.14
2023-08-29T23:17:18.102Z,99474.11
2023-08-29T23:19:45.555Z,99473.19
2023-08-29T23:22:13.070Z,99471.67
2023-08-29T23:24:40.453Z,99475.55
2023-08-29T23:27:07.811Z,99475.71
2023-08-29T23:29:37.536Z,99473.81
2023-08-29T23:32:06.002Z,99472.78
2023-08-29T23:34:37.118Z,99474.05
2023-08-29T23:37:04.732Z,99478.02
2023-08-29T23:39:32.665Z,99482.34
2023-08-29T23:42:01.116Z,99481.39
2023-08-29T23:44:28.748Z,99477.73
2023-08-29T23:46:59.046Z,99479.23
2023-08-29T23:49:26.425Z,99478.17
2023-08-29T23:51:53.873Z,99484.73
2023-08-29T23:54:21.228Z,99484.68
2023-08-29T23:56:48.558Z,99483.20
2023-08-29T23:59:15.853Z,99484.75
